Time;durP1;ratioP1;P1;durP2;ratioP2;P2;SDS_P1;SDS_P2;PMS_P1;PMS_P2;Temp;Humidity;BMP_temperature;BMP_pressure;BME280_temperature;BME280_humidity;BME280_pressure;Samples;Min_cycle;Max_cycle;Signal;HPM_P1;HPM_P2
2023/03/15 00:01:02;;;;;;;41.00;7.03;;;14.90;57.10;;;;;;5071054;28;20200;-94
2023/03/15 00:03:29;;;;;;;36.83;7.03;;;14.90;57.10;;;;;;5070407;28;20656;-94
2023/03/15 00:05:56;;;;;;;40.83;7.17;;;15.00;57.20;;;;;;5068704;28;20265;-94
2023/03/15 00:08:24;;;;;;;64.17;8.77;;;14.90;57.10;;;;;;5061438;28;20325;-92
2023/03/15 00:10:51;;;;;;;43.43;7.13;;;14.90;57.10;;;;;;5067904;28;20254;-93
2023/03/15 00:13:18;;;;;;;41.83;7.10;;;14.90;57.10;;;;;;5070360;28;20222;-94
2023/03/15 00:15:46;;;;;;;33.97;6.00;;;15.00;57.20;;;;;;5071707;28;20204;-94
2023/03/15 00:18:14;;;;;;;33.40;6.20;;;14.90;57.10;;;;;;5064501;28;20757;-93
2023/03/15 00:20:40;;;;;;;28.77;5.93;;;14.90;57.10;;;;;;5068019;28;20203;-90
2023/03/15 00:23:08;;;;;;;35.23;6.67;;;14.90;57.10;;;;;;5070150;28;20203;-94
2023/03/15 00:25:37;;;;;;;36.63;6.97;;;14.90;57.10;;;;;;5070021;28;20264;-92
2023/03/15 00:28:06;;;;;;;34.93;6.93;;;14.90;57.10;;;;;;5070178;28;20718;-94
2023/03/15 00:30:33;;;;;;;65.13;8.67;;;14.90;57.10;;;;;;5069910;28;20265;-94
2023/03/15 00:33:00;;;;;;;34.40;6.37;;;14.90;57.10;;;;;;5069388;28;20227;-94
2023/03/15 00:35:27;;;;;;;30.13;6.00;;;14.90;57.10;;;;;;5071124;28;20233;-94
2023/03/15 00:37:55;;;;;;;38.13;6.67;;;14.90;57.10;;;;;;5067187;28;20198;-94
2023/03/15 00:40:22;;;;;;;32.70;6.43;;;14.80;57.00;;;;;;5066996;28;20293;-90
2023/03/15 00:42:52;;;;;;;34.37;6.30;;;14.90;57.10;;;;;;5070797;28;20887;-93
2023/03/15 00:45:21;;;;;;;57.67;8.27;;;14.80;56.90;;;;;;5068905;28;20207;-92
2023/03/15 00:47:49;;;;;;;41.07;6.27;;;14.80;57.00;;;;;;5068131;28;20202;-92
2023/03/15 00:50:16;;;;;;;52.47;8.10;;;14.80;57.00;;;;;;5069675;28;20652;-93
2023/03/15 00:52:45;;;;;;;36.70;6.60;;;14.80;57.00;;;;;;5069636;28;20227;-93
2023/03/15 00:55:14;;;;;;;52.27;7.70;;;14.80;56.90;;;;;;5065475;28;20203;-92
2023/03/15 00:57:41;;;;;;;34.10;6.00;;;14.80;57.00;;;;;;5070702;28;20207;-94
2023/03/15 01:00:13;;;;;;;44.97;7.27;;;14.80;57.00;;;;;;5067439;28;20191;-93
2023/03/15 01:02:46;;;;;;;35.50;6.33;;;14.80;57.00;;;;;;5070422;28;20212;-93
2023/03/15 01:05:13;;;;;;;51.27;7.73;;;14.80;56.90;;;;;;5068728;28;20687;-92
2023/03/15 01:07:40;;;;;;;33.00;6.20;;;14.80;57.00;;;;;;5066592;28;20534;-93
2023/03/15 01:10:08;;;;;;;40.33;6.37;;;14.90;57.10;;;;;;5068640;28;20206;-92
2023/03/15 01:12:35;;;;;;;48.13;7.37;;;14.80;57.00;;;;;;5068370;28;20231;-92
2023/03/15 01:15:05;;;;;;;36.33;6.27;;;14.80;57.00;;;;;;5069221;28;20193;-91
2023/03/15 01:17:34;;;;;;;45.33;6.90;;;14.70;56.90;;;;;;5069430;28;20204;-92
2023/03/15 01:20:04;;;;;;;37.80;6.80;;;14.80;57.00;;;;;;5065769;28;20642;-93
2023/03/15 01:22:31;;;;;;;36.40;6.97;;;14.80;57.00;;;;;;5069188;28;20282;-93
2023/03/15 01:24:58;;;;;;;37.53;7.20;;;14.70;56.90;;;;;;5068815;28;20700;-94
2023/03/15 01:27:26;;;;;;;33.50;5.90;;;14.70;56.90;;;;;;5069963;28;20207;-94
2023/03/15 01:29:53;;;;;;;43.13;6.83;;;14.70;56.90;;;;;;5055757;28;22185;-92
2023/03/15 01:32:20;;;;;;;39.77;6.73;;;14.70;56.90;;;;;;5064362;28;20668;-93
2023/03/15 01:34:48;;;;;;;36.70;6.37;;;14.70;56.90;;;;;;5069826;28;20208;-93
2023/03/15 01:37:16;;;;;;;40.67;6.50;;;14.70;56.90;;;;;;5068992;28;20200;-92
2023/03/15 01:39:43;;;;;;;35.83;6.13;;;14.70;57.00;;;;;;5068101;28;20206;-94
2023/03/15 01:42:10;;;;;;;64.03;9.40;;;14.70;56.90;;;;;;5066121;28;20221;-93
2023/03/15 01:44:52;;;;;;;54.07;7.73;;;14.70;56.90;;;;;;5080689;28;20200;-90
2023/03/15 01:47:19;;;;;;;37.67;6.43;;;14.70;56.90;;;;;;5073599;28;20210;-92
2023/03/15 01:49:50;;;;;;;39.30;6.90;;;14.70;57.00;;;;;;5063648;28;20550;-92
2023/03/15 01:52:21;;;;;;;33.27;6.30;;;14.60;56.90;;;;;;5067981;28;20203;-92
2023/03/15 01:54:52;;;;;;;45.20;7.17;;;14.70;56.90;;;;;;5068344;28;20713;-92
2023/03/15 01:57:24;;;;;;;33.00;6.13;;;14.70;57.00;;;;;;5069196;28;20205;-92
2023/03/15 01:59:55;;;;;;;32.03;6.27;;;14.70;57.00;;;;;;5057488;28;20192;-92
2023/03/15 02:02:24;;;;;;;39.10;6.73;;;14.60;56.90;;;;;;5066262;28;20196;-93
2023/03/15 02:04:58;;;;;;;32.33;6.40;;;14.60;56.90;;;;;;5069530;28;20207;-93
2023/03/15 02:07:27;;;;;;;42.43;7.07;;;14.60;56.90;;;;;;5059658;28;20199;-93
2023/03/15 02:10:00;;;;;;;32.10;6.20;;;14.60;56.90;;;;;;5068956;28;20208;-89
2023/03/15 02:12:30;;;;;;;39.87;7.37;;;14.60;56.90;;;;;;5066583;28;20195;-89
2023/03/15 02:14:58;;;;;;;35.47;6.97;;;14.70;57.00;;;;;;5067723;28;20226;-89
2023/03/15 02:17:31;;;;;;;51.77;8.23;;;14.60;56.90;;;;;;5062584;28;20197;-90
2023/03/15 02:20:11;;;;;;;35.27;6.63;;;14.60;56.90;;;;;;5054846;28;20226;-90
2023/03/15 02:22:47;;;;;;;41.30;7.53;;;14.60;56.90;;;;;;5065352;28;20706;-90
2023/03/15 02:25:21;;;;;;;38.73;6.67;;;14.60;56.90;;;;;;5066853;28;20413;-92
2023/03/15 02:27:51;;;;;;;70.07;9.13;;;14.60;56.90;;;;;;5065520;28;20253;-91
2023/03/15 02:30:18;;;;;;;44.27;7.10;;;14.60;56.90;;;;;;5065702;28;20222;-92
2023/03/15 02:32:46;;;;;;;47.13;7.00;;;14.60;56.90;;;;;;5062652;28;20205;-90
2023/03/15 02:35:22;;;;;;;40.93;6.67;;;14.60;56.90;;;;;;5066379;28;20704;-94
2023/03/15 02:37:49;;;;;;;37.47;6.60;;;14.60;56.90;;;;;;5053176;28;20209;-94
2023/03/15 02:40:19;;;;;;;39.83;7.47;;;14.60;57.00;;;;;;5068007;28;20283;-94
2023/03/15 02:42:48;;;;;;;36.83;6.40;;;14.60;56.90;;;;;;5058609;28;20206;-94
2023/03/15 02:45:17;;;;;;;46.23;7.13;;;14.40;56.80;;;;;;5066779;28;20203;-95
2023/03/15 02:47:46;;;;;;;38.37;6.70;;;14.60;56.90;;;;;;5067179;28;20210;-95
2023/03/15 02:50:13;;;;;;;46.27;7.70;;;14.60;57.00;;;;;;5068586;28;20210;-95
2023/03/15 02:52:40;;;;;;;41.17;7.30;;;14.60;57.00;;;;;;5069025;28;20231;-95
2023/03/15 02:55:08;;;;;;;39.70;6.60;;;14.60;57.00;;;;;;5066220;28;20227;-94
2023/03/15 02:57:38;;;;;;;45.30;7.27;;;14.50;56.90;;;;;;5068688;28;20219;-94
2023/03/15 03:00:13;;;;;;;31.23;5.97;;;14.60;56.90;;;;;;5067844;28;20670;-93
2023/03/15 03:02:43;;;;;;;47.23;7.10;;;14.50;56.90;;;;;;5064238;28;20674;-93
2023/03/15 03:05:11;;;;;;;39.30;6.70;;;14.50;56.90;;;;;;5060939;28;20221;-92
2023/03/15 03:07:38;;;;;;;50.63;7.77;;;14.50;56.90;;;;;;5066635;28;20301;-96
2023/03/15 03:10:06;;;;;;;45.20;7.27;;;14.50;56.90;;;;;;5068338;28;20206;-94
2023/03/15 03:12:33;;;;;;;34.70;6.30;;;14.50;56.90;;;;;;5068047;28;20203;-95
2023/03/15 03:15:01;;;;;;;34.43;6.23;;;14.60;57.00;;;;;;5069191;28;20751;-95
2023/03/15 03:17:29;;;;;;;40.23;6.87;;;14.50;56.90;;;;;;5068871;28;20210;-95
2023/03/15 03:19:57;;;;;;;27.93;5.77;;;14.60;56.90;;;;;;5069384;28;20928;-93
2023/03/15 03:22:25;;;;;;;44.63;7.50;;;14.50;56.90;;;;;;5065778;28;20240;-91
2023/03/15 03:24:52;;;;;;;29.97;5.60;;;14.50;56.90;;;;;;5066429;28;20203;-92
2023/03/15 03:27:20;;;;;;;33.87;5.87;;;14.50;56.90;;;;;;5068008;28;20202;-93
2023/03/15 03:29:47;;;;;;;40.93;6.47;;;14.50;56.80;;;;;;5067740;28;20214;-90
2023/03/15 03:32:14;;;;;;;56.47;7.63;;;14.50;56.90;;;;;;5066307;28;20226;-92
2023/03/15 03:34:41;;;;;;;37.27;6.57;;;14.50;56.80;;;;;;5069661;28;20584;-90
2023/03/15 03:37:09;;;;;;;32.33;5.77;;;14.50;56.90;;;;;;5071762;28;20213;-93
2023/03/15 03:39:36;;;;;;;57.47;7.73;;;14.50;56.90;;;;;;5070962;28;20201;-90
2023/03/15 03:42:04;;;;;;;28.20;6.33;;;14.50;56.90;;;;;;5070873;28;20207;-89
2023/03/15 03:44:31;;;;;;;85.13;9.83;;;14.50;56.90;;;;;;5070219;28;20205;-89
2023/03/15 03:46:58;;;;;;;49.43;7.47;;;14.50;56.80;;;;;;5069131;28;20199;-90
2023/03/15 03:49:25;;;;;;;43.23;6.57;;;14.50;56.90;;;;;;5071997;28;20710;-90
2023/03/15 03:51:52;;;;;;;40.93;6.43;;;14.50;56.90;;;;;;5069617;28;20286;-91
2023/03/15 03:54:20;;;;;;;36.17;6.83;;;14.50;56.80;;;;;;5071984;28;20233;-90
2023/03/15 03:56:47;;;;;;;40.33;6.87;;;14.40;56.70;;;;;;5069792;28;20669;-91
2023/03/15 03:59:14;;;;;;;34.43;5.87;;;14.40;56.70;;;;;;5072826;28;20444;-89
2023/03/15 04:01:42;;;;;;;35.03;6.40;;;14.40;56.70;;;;;;5068352;28;20275;-95
2023/03/15 04:04:12;;;;;;;43.50;6.83;;;14.50;56.80;;;;;;5065355;28;20218;-94
2023/03/15 04:06:44;;;;;;;39.17;6.27;;;14.40;56.70;;;;;;5072424;28;20211;-94
2023/03/15 04:09:11;;;;;;;31.13;5.97;;;14.40;56.70;;;;;;5072021;28;20194;-94
2023/03/15 04:11:42;;;;;;;43.90;6.53;;;14.50;56.80;;;;;;5070248;28;20207;-94
2023/03/15 04:14:09;;;;;;;29.63;6.17;;;14.40;56.70;;;;;;5070741;28;20299;-93
2023/03/15 04:16:36;;;;;;;40.03;6.47;;;14.40;56.70;;;;;;5059683;28;20643;-95
2023/03/15 04:19:03;;;;;;;32.40;6.40;;;14.40;56.70;;;;;;5061377;28;20211;-95
2023/03/15 04:21:31;;;;;;;31.70;5.77;;;14.40;56.70;;;;;;5069542;28;20203;-94
2023/03/15 04:23:59;;;;;;;41.30;6.93;;;14.50;56.80;;;;;;5063306;28;20203;-96
2023/03/15 04:26:26;;;;;;;46.70;7.57;;;14.40;56.70;;;;;;5067034;28;20205;-95
2023/03/15 04:28:55;;;;;;;44.00;6.80;;;14.40;56.70;;;;;;5063496;28;20207;-91
2023/03/15 04:31:25;;;;;;;40.80;6.40;;;14.40;56.70;;;;;;5069934;28;20919;-92
2023/03/15 04:33:53;;;;;;;36.40;6.00;;;14.40;56.70;;;;;;5069718;28;21925;-93
2023/03/15 04:36:20;;;;;;;33.67;6.17;;;14.40;56.70;;;;;;5069597;28;20258;-93
2023/03/15 04:38:47;;;;;;;37.33;6.53;;;14.40;56.70;;;;;;5071013;28;20632;-93
2023/03/15 04:41:15;;;;;;;44.03;7.37;;;14.40;56.70;;;;;;5069110;28;20249;-94
2023/03/15 04:43:42;;;;;;;38.97;6.83;;;14.40;56.70;;;;;;5070306;28;20214;-90
2023/03/15 04:46:11;;;;;;;32.40;6.07;;;14.40;56.70;;;;;;5068494;28;20269;-94
2023/03/15 04:48:38;;;;;;;42.73;7.13;;;14.30;56.60;;;;;;5071578;28;20192;-95
2023/03/15 04:51:06;;;;;;;34.20;6.23;;;14.30;56.70;;;;;;5071228;28;20289;-93
2023/03/15 04:53:33;;;;;;;51.00;7.47;;;14.30;56.60;;;;;;5077334;28;20342;-90
2023/03/15 04:56:00;;;;;;;43.17;7.23;;;14.30;56.60;;;;;;5083391;28;20212;-95
2023/03/15 04:58:26;;;;;;;37.20;6.10;;;14.30;56.60;;;;;;5078418;28;20204;-90
2023/03/15 05:00:54;;;;;;;34.43;6.77;;;14.40;56.70;;;;;;5070780;28;20200;-90
2023/03/15 05:03:22;;;;;;;35.17;6.33;;;14.30;56.60;;;;;;5067089;28;20207;-92
2023/03/15 05:05:49;;;;;;;47.27;7.33;;;14.30;56.60;;;;;;5069030;28;20298;-91
2023/03/15 05:08:16;;;;;;;34.57;6.27;;;14.30;56.70;;;;;;5071871;28;20211;-93
2023/03/15 05:10:43;;;;;;;31.53;5.70;;;14.30;56.60;;;;;;5070304;28;20208;-93
2023/03/15 05:13:10;;;;;;;25.30;5.97;;;14.30;56.60;;;;;;5060362;28;20294;-93
2023/03/15 05:15:37;;;;;;;44.43;6.97;;;14.30;56.60;;;;;;5070004;28;20219;-93
2023/03/15 05:18:04;;;;;;;37.80;6.70;;;14.20;56.60;;;;;;5070577;28;20206;-94
2023/03/15 05:20:33;;;;;;;30.50;6.20;;;14.30;56.60;;;;;;5070705;28;20200;-93
2023/03/15 05:23:00;;;;;;;30.80;6.00;;;14.30;56.60;;;;;;5070220;28;20209;-93
2023/03/15 05:25:26;;;;;;;39.13;6.77;;;14.40;56.70;;;;;;5070428;28;20602;-95
2023/03/15 05:27:55;;;;;;;37.70;6.10;;;14.30;56.60;;;;;;5070043;28;20593;-95
2023/03/15 05:30:22;;;;;;;37.17;6.77;;;14.20;56.60;;;;;;5071077;28;20210;-94
2023/03/15 05:32:50;;;;;;;42.13;7.20;;;14.30;56.60;;;;;;5070137;28;20209;-95
2023/03/15 05:35:17;;;;;;;37.70;6.40;;;14.20;56.60;;;;;;5070291;28;20587;-94
2023/03/15 05:37:45;;;;;;;37.83;6.40;;;14.20;56.60;;;;;;5070115;28;20228;-94
2023/03/15 05:40:14;;;;;;;27.30;5.40;;;14.20;56.50;;;;;;5071344;28;20203;-94
2023/03/15 05:42:41;;;;;;;40.70;6.43;;;14.20;56.50;;;;;;5070929;28;20204;-94
2023/03/15 05:45:09;;;;;;;49.67;7.57;;;14.20;56.50;;;;;;5069411;28;20211;-94
2023/03/15 05:47:36;;;;;;;38.23;6.50;;;14.20;56.50;;;;;;5069366;28;20207;-95
2023/03/15 05:50:04;;;;;;;57.53;7.97;;;14.20;56.50;;;;;;5070274;28;20196;-95
2023/03/15 05:52:31;;;;;;;32.57;6.37;;;14.20;56.50;;;;;;5068898;28;20684;-95
2023/03/15 05:55:00;;;;;;;75.80;9.07;;;14.20;56.50;;;;;;5068093;28;20227;-94
2023/03/15 05:57:27;;;;;;;29.07;5.43;;;14.10;56.40;;;;;;5068200;28;20270;-94
2023/03/15 05:59:53;;;;;;;45.10;6.50;;;14.10;56.40;;;;;;5069740;28;20293;-92
2023/03/15 06:02:21;;;;;;;41.57;7.00;;;14.10;56.40;;;;;;5065959;28;20958;-91
2023/03/15 06:04:48;;;;;;;42.23;6.43;;;14.10;56.40;;;;;;5069088;28;20211;-93
2023/03/15 06:07:14;;;;;;;35.23;6.37;;;14.10;56.40;;;;;;5069220;28;20216;-92
2023/03/15 06:09:41;;;;;;;40.50;6.63;;;14.10;56.40;;;;;;5065914;28;20211;-91
2023/03/15 06:12:10;;;;;;;38.53;6.57;;;14.10;56.40;;;;;;5067788;28;20200;-90
2023/03/15 06:14:37;;;;;;;37.90;6.47;;;14.10;56.40;;;;;;5068265;28;20576;-93
2023/03/15 06:17:04;;;;;;;43.07;6.73;;;14.10;56.30;;;;;;5068782;28;20199;-93
2023/03/15 06:19:31;;;;;;;42.60;7.03;;;14.10;56.40;;;;;;5067478;28;20330;-92
2023/03/15 06:21:58;;;;;;;38.07;6.47;;;14.10;56.30;;;;;;5065723;28;20735;-91
2023/03/15 06:24:25;;;;;;;37.80;6.27;;;14.10;57.00;;;;;;5068375;28;20329;-90
2023/03/15 06:26:53;;;;;;;44.73;6.67;;;14.10;56.30;;;;;;5068949;28;20210;-90
2023/03/15 06:29:21;;;;;;;33.27;5.97;;;14.00;56.30;;;;;;5068558;28;20280;-90
2023/03/15 06:31:51;;;;;;;56.27;7.80;;;14.00;56.30;;;;;;5066836;28;20210;-92
2023/03/15 06:34:21;;;;;;;36.40;6.80;;;14.00;56.30;;;;;;5068473;28;20224;-89
2023/03/15 06:36:48;;;;;;;44.90;6.80;;;14.00;56.20;;;;;;5069142;28;20519;-93
2023/03/15 06:39:19;;;;;;;36.53;6.17;;;14.00;56.30;;;;;;5067374;28;20211;-90
2023/03/15 06:41:46;;;;;;;42.17;6.73;;;14.00;56.30;;;;;;5066954;28;20629;-92
2023/03/15 06:44:13;;;;;;;34.40;6.20;;;14.00;56.30;;;;;;5068136;28;20201;-93
2023/03/15 06:46:41;;;;;;;33.67;5.57;;;14.00;56.30;;;;;;5069197;28;20671;-91
2023/03/15 06:49:08;;;;;;;27.60;5.40;;;14.00;56.30;;;;;;5069628;28;20283;-93
2023/03/15 06:51:35;;;;;;;35.23;6.33;;;13.90;56.20;;;;;;5067291;28;20198;-92
2023/03/15 06:54:03;;;;;;;37.37;6.17;;;14.00;56.30;;;;;;5066509;28;20197;-95
2023/03/15 06:56:29;;;;;;;37.60;6.43;;;14.00;56.30;;;;;;5069546;28;20209;-91
2023/03/15 06:58:56;;;;;;;35.50;6.33;;;13.90;56.10;;;;;;5066919;28;20218;-94
2023/03/15 07:01:23;;;;;;;30.47;6.17;;;14.00;56.20;;;;;;5067620;28;20203;-92
2023/03/15 07:03:52;;;;;;;52.83;7.60;;;13.90;56.20;;;;;;5069492;28;20191;-94
2023/03/15 07:06:19;;;;;;;28.77;5.97;;;13.90;56.10;;;;;;5073194;28;20208;-95
2023/03/15 07:08:48;;;;;;;34.47;6.60;;;13.90;56.10;;;;;;5071137;28;20310;-94
2023/03/15 07:11:15;;;;;;;43.00;6.67;;;13.90;56.10;;;;;;5065611;28;20755;-94
2023/03/15 07:13:43;;;;;;;37.53;6.20;;;13.90;56.10;;;;;;5070720;28;20203;-91
2023/03/15 07:16:13;;;;;;;29.37;6.10;;;13.90;56.30;;;;;;5054728;28;20244;-93
2023/03/15 07:18:41;;;;;;;40.50;6.70;;;14.00;56.30;;;;;;5064705;28;20216;-92
2023/03/15 07:21:10;;;;;;;35.10;6.60;;;13.90;56.70;;;;;;5058272;28;20301;-94
2023/03/15 07:23:38;;;;;;;35.30;6.23;;;13.90;56.10;;;;;;5068872;28;20202;-94
2023/03/15 07:26:07;;;;;;;34.77;6.13;;;13.90;56.10;;;;;;5059862;28;20200;-91
2023/03/15 07:28:34;;;;;;;38.73;6.93;;;13.80;56.10;;;;;;5069920;28;20278;-91
2023/03/15 07:31:02;;;;;;;40.90;6.97;;;13.90;56.20;;;;;;5068983;28;20200;-91
2023/03/15 07:33:31;;;;;;;37.37;6.50;;;13.80;56.10;;;;;;5068311;28;20203;-91
2023/03/15 07:36:00;;;;;;;36.77;6.70;;;13.80;56.10;;;;;;5068997;28;20241;-91
2023/03/15 07:38:28;;;;;;;39.27;6.10;;;13.80;56.10;;;;;;5068623;28;20222;-91
2023/03/15 07:40:56;;;;;;;33.53;6.27;;;13.80;56.10;;;;;;5069310;28;20196;-91
2023/03/15 07:43:23;;;;;;;38.77;6.83;;;13.80;56.10;;;;;;5068079;28;20203;-91
2023/03/15 07:45:50;;;;;;;34.53;6.90;;;13.80;56.10;;;;;;5069231;28;20278;-95
2023/03/15 07:48:19;;;;;;;43.77;7.10;;;13.80;56.10;;;;;;5066384;28;20206;-92
2023/03/15 07:50:46;;;;;;;37.23;6.33;;;13.80;56.10;;;;;;5066866;28;20333;-93
2023/03/15 07:53:14;;;;;;;32.87;6.10;;;13.80;56.20;;;;;;5068660;28;20204;-95
2023/03/15 07:55:42;;;;;;;39.77;7.10;;;13.80;56.20;;;;;;5067427;28;20230;-94
2023/03/15 07:58:09;;;;;;;50.07;7.60;;;13.80;56.10;;;;;;5068570;28;20201;-93
2023/03/15 08:00:36;;;;;;;38.60;6.90;;;13.80;56.20;;;;;;5066536;28;20291;-94
2023/03/15 08:03:04;;;;;;;51.60;7.63;;;13.70;56.10;;;;;;5066165;28;20331;-95
2023/03/15 08:05:31;;;;;;;72.93;9.20;;;13.70;56.10;;;;;;5061846;28;20225;-94
2023/03/15 08:08:03;;;;;;;39.77;7.20;;;13.70;56.10;;;;;;5061014;28;20197;-94
2023/03/15 08:10:30;;;;;;;40.53;7.33;;;13.70;56.10;;;;;;5063814;28;20198;-93
2023/03/15 08:12:59;;;;;;;48.53;7.63;;;13.70;56.10;;;;;;5064702;28;20214;-93
2023/03/15 08:15:28;;;;;;;37.13;6.93;;;13.70;56.10;;;;;;5067038;28;20228;-96
2023/03/15 08:17:55;;;;;;;50.23;7.57;;;13.70;56.10;;;;;;5067344;28;20206;-93
2023/03/15 08:20:22;;;;;;;37.03;6.70;;;13.70;56.10;;;;;;5076005;28;20638;-92
2023/03/15 08:22:50;;;;;;;38.00;6.40;;;13.70;56.10;;;;;;5071762;28;20210;-93
2023/03/15 08:25:20;;;;;;;43.17;7.17;;;13.70;56.10;;;;;;5073026;28;20211;-95
2023/03/15 08:27:47;;;;;;;49.50;7.73;;;13.70;56.10;;;;;;5062693;28;20289;-96
2023/03/15 08:30:17;;;;;;;39.07;6.70;;;13.70;56.20;;;;;;5064390;28;20209;-94
2023/03/15 08:32:46;;;;;;;34.13;6.57;;;13.70;56.10;;;;;;5072750;28;20573;-96
2023/03/15 08:35:16;;;;;;;37.87;6.73;;;13.60;56.10;;;;;;5070990;28;20316;-96
2023/03/15 08:37:45;;;;;;;49.87;8.17;;;13.70;56.20;;;;;;5064738;28;20567;-92
2023/03/15 08:40:25;;;;;;;51.23;7.83;;;13.70;56.20;;;;;;5070552;28;20219;-96
2023/03/15 08:42:53;;;;;;;33.90;6.97;;;13.70;56.20;;;;;;5072508;28;20200;-92
2023/03/15 08:45:22;;;;;;;44.90;7.47;;;13.70;56.30;;;;;;5070546;28;20569;-91
2023/03/15 08:47:58;;;;;;;37.23;6.93;;;13.70;56.30;;;;;;5071292;28;20205;-91
2023/03/15 08:50:26;;;;;;;58.97;8.63;;;13.70;56.30;;;;;;5056944;28;20298;-92
2023/03/15 08:52:54;;;;;;;73.37;9.60;;;13.70;56.30;;;;;;5064921;28;20202;-93
2023/03/15 08:55:21;;;;;;;40.87;7.03;;;13.70;56.30;;;;;;5064354;28;20709;-92
2023/03/15 08:57:48;;;;;;;54.33;8.27;;;13.70;56.30;;;;;;5066674;28;20414;-92
2023/03/15 09:00:19;;;;;;;74.47;9.87;;;13.70;56.30;;;;;;5066819;28;21026;-92
2023/03/15 09:02:48;;;;;;;42.60;7.17;;;13.70;56.40;;;;;;5062448;28;20238;-92
2023/03/15 09:05:17;;;;;;;66.27;9.27;;;13.70;56.30;;;;;;5063073;28;20232;-90
2023/03/15 09:07:44;;;;;;;43.47;7.87;;;13.70;56.30;;;;;;5070519;28;20206;-93
2023/03/15 09:10:13;;;;;;;44.63;7.33;;;13.60;56.30;;;;;;5064476;28;20699;-93
2023/03/15 09:12:41;;;;;;;45.23;7.43;;;13.70;56.30;;;;;;5070825;28;20199;-93
2023/03/15 09:15:10;;;;;;;42.83;7.53;;;13.80;56.50;;;;;;5068848;28;20261;-93
2023/03/15 09:17:37;;;;;;;38.80;7.07;;;13.70;56.40;;;;;;5070525;28;20642;-93
2023/03/15 09:20:13;;;;;;;39.80;7.63;;;13.70;56.30;;;;;;5069990;28;20274;-93
2023/03/15 09:22:40;;;;;;;42.30;7.30;;;13.70;56.40;;;;;;5062588;28;20191;-92
2023/03/15 09:25:08;;;;;;;39.87;7.10;;;13.70;57.00;;;;;;5059077;28;20213;-93
2023/03/15 09:27:35;;;;;;;36.27;7.33;;;13.70;56.40;;;;;;5071072;28;20207;-93
2023/03/15 09:32:45;;;;;;;49.30;7.47;;;13.70;56.40;;;;;;5049044;28;20225;-93
2023/03/15 09:35:19;;;;;;;52.73;7.60;;;13.80;56.50;;;;;;5068221;28;20748;-93
2023/03/15 09:37:47;;;;;;;41.70;7.40;;;13.80;56.50;;;;;;5062262;28;20669;-93
2023/03/15 09:40:20;;;;;;;47.10;7.60;;;13.80;56.60;;;;;;5069950;28;20213;-92
2023/03/15 09:42:59;;;;;;;44.00;6.83;;;13.80;57.10;;;;;;5069485;28;20630;-92
2023/03/15 09:45:32;;;;;;;44.70;7.27;;;13.80;56.60;;;;;;5069564;28;20214;-93
2023/03/15 09:48:05;;;;;;;32.40;6.40;;;13.80;56.60;;;;;;5066922;28;20651;-93
2023/03/15 09:50:37;;;;;;;61.30;8.43;;;13.80;56.60;;;;;;5069646;28;20282;-93
2023/03/15 09:53:27;;;;;;;38.83;6.73;;;13.80;56.60;;;;;;5064296;28;20199;-94
2023/03/15 09:55:54;;;;;;;48.17;7.60;;;13.80;56.60;;;;;;5062839;28;20219;-93
2023/03/15 09:58:28;;;;;;;38.73;7.07;;;13.80;56.60;;;;;;5070121;28;20218;-93
2023/03/15 10:01:00;;;;;;;42.07;7.07;;;13.90;56.70;;;;;;5070483;28;20271;-93
2023/03/15 10:03:34;;;;;;;57.73;8.23;;;13.90;56.60;;;;;;5068906;28;20205;-93
2023/03/15 10:06:10;;;;;;;41.70;7.03;;;13.90;56.70;;;;;;5067133;28;20248;-93
2023/03/15 10:08:47;;;;;;;34.10;6.80;;;13.90;56.70;;;;;;5072744;28;20201;-93
2023/03/15 10:11:22;;;;;;;45.03;7.47;;;13.90;56.60;;;;;;5052346;28;20734;-93
2023/03/15 10:14:06;;;;;;;38.20;6.37;;;13.90;56.60;;;;;;5061400;28;20214;-93
2023/03/15 10:16:40;;;;;;;36.23;6.53;;;14.00;56.80;;;;;;5068937;28;21012;-94
2023/03/15 10:19:17;;;;;;;47.50;7.00;;;13.90;56.70;;;;;;5064449;28;20202;-93
2023/03/15 10:22:12;;;;;;;39.27;6.40;;;13.90;56.70;;;;;;5070064;28;20300;-94
2023/03/15 10:24:46;;;;;;;35.87;6.87;;;13.90;56.60;;;;;;5069456;28;20207;-94
2023/03/15 10:27:21;;;;;;;40.30;7.20;;;13.90;56.60;;;;;;5067741;28;20203;-94
2023/03/15 10:29:50;;;;;;;44.73;6.97;;;14.00;56.70;;;;;;5064571;28;20206;-93
2023/03/15 10:32:20;;;;;;;71.00;8.93;;;14.00;56.70;;;;;;5077917;22;20242;-94
2023/03/15 10:34:51;;;;;;;52.23;7.47;;;14.00;56.70;;;;;;5028602;28;20287;-93
2023/03/15 10:37:23;;;;;;;45.77;7.27;;;14.10;56.80;;;;;;5028309;28;20220;-94
2023/03/15 10:39:55;;;;;;;36.80;6.97;;;14.00;56.70;;;;;;5029036;28;20319;-93
2023/03/15 10:42:30;;;;;;;32.87;5.97;;;14.10;56.80;;;;;;5029161;28;20203;-93
2023/03/15 10:44:59;;;;;;;55.33;8.00;;;14.10;56.80;;;;;;5027630;28;20290;-93
2023/03/15 10:47:26;;;;;;;41.83;6.83;;;14.10;56.80;;;;;;5028735;28;20202;-93
2023/03/15 10:50:00;;;;;;;34.70;6.33;;;14.10;56.80;;;;;;5024180;28;20213;-93
2023/03/15 10:52:34;;;;;;;40.23;7.17;;;14.10;56.80;;;;;;5029334;28;20207;-94
2023/03/15 10:55:05;;;;;;;36.73;7.17;;;14.10;57.10;;;;;;5028589;28;20202;-94
2023/03/15 10:57:37;;;;;;;47.60;8.13;;;14.20;56.90;;;;;;5021407;28;20224;-94
2023/03/15 11:00:22;;;;;;;36.37;6.70;;;14.10;56.80;;;;;;5027145;28;20207;-94
2023/03/15 11:02:51;;;;;;;45.57;7.17;;;14.20;56.90;;;;;;5029082;28;20217;-93
2023/03/15 11:05:19;;;;;;;37.17;6.80;;;14.20;56.90;;;;;;5029207;28;20201;-93
2023/03/15 11:07:58;;;;;;;57.83;8.17;;;14.20;56.90;;;;;;5026581;28;20296;-93
2023/03/15 11:10:27;;;;;;;69.80;9.20;;;14.20;56.90;;;;;;5025170;28;20204;-90
2023/03/15 11:13:10;;;;;;;42.00;6.63;;;14.20;56.90;;;;;;5027984;28;20242;-92
2023/03/15 11:15:38;;;;;;;58.00;8.57;;;14.30;57.00;;;;;;5026004;28;20206;-93
2023/03/15 11:18:05;;;;;;;34.87;6.93;;;14.20;56.90;;;;;;5029134;28;20208;-92
2023/03/15 11:20:36;;;;;;;39.50;6.53;;;14.30;57.00;;;;;;5027346;28;20207;-92
2023/03/15 11:23:14;;;;;;;45.00;6.87;;;14.30;57.00;;;;;;5028095;28;20210;-93
2023/03/15 11:25:41;;;;;;;44.37;7.33;;;14.30;57.00;;;;;;5028867;28;20206;-92
2023/03/15 11:28:17;;;;;;;42.53;6.97;;;14.30;57.00;;;;;;5026984;28;20661;-91
2023/03/15 11:30:45;;;;;;;49.90;7.53;;;14.30;57.00;;;;;;5015359;28;20203;-93
2023/03/15 11:33:24;;;;;;;40.63;7.13;;;14.30;57.00;;;;;;5028444;28;20239;-94
2023/03/15 11:35:52;;;;;;;53.90;8.30;;;14.40;57.20;;;;;;5027727;28;20228;-93
2023/03/15 11:38:26;;;;;;;37.47;6.83;;;14.40;57.10;;;;;;5029447;28;20721;-94
2023/03/15 11:40:56;;;;;;;43.00;7.60;;;14.40;57.20;;;;;;5044398;28;20184;-90
2023/03/15 11:43:30;;;;;;;60.50;8.50;;;14.40;57.10;;;;;;5046193;28;20201;-95
2023/03/15 11:45:59;;;;;;;49.50;8.57;;;14.50;57.10;;;;;;5025694;28;20220;-96
2023/03/15 11:48:31;;;;;;;36.93;7.03;;;14.50;57.10;;;;;;5030139;28;20204;-95
2023/03/15 11:51:02;;;;;;;41.17;7.20;;;14.50;57.10;;;;;;5037617;28;20211;-96
2023/03/15 11:53:38;;;;;;;36.10;6.90;;;14.60;57.20;;;;;;5034926;28;20680;-96
2023/03/15 11:56:21;;;;;;;38.53;7.07;;;14.50;57.10;;;;;;5037907;28;20651;-96
2023/03/15 11:59:05;;;;;;;43.03;7.53;;;14.50;57.10;;;;;;5035492;28;20240;-96
2023/03/15 12:01:35;;;;;;;38.87;7.33;;;14.60;57.10;;;;;;5031377;28;20943;-96
2023/03/15 12:04:50;;;;;;;41.37;7.43;;;14.60;57.10;;;;;;5032637;28;20207;-96
2023/03/15 12:07:31;;;;;;;34.07;6.33;;;14.60;57.10;;;;;;5028104;28;20224;-96
2023/03/15 12:10:20;;;;;;;32.40;5.93;;;14.70;57.20;;;;;;5033718;28;20304;-96
2023/03/15 12:12:48;;;;;;;35.43;6.60;;;14.70;57.20;;;;;;5033766;28;20234;-96
2023/03/15 12:15:49;;;;;;;37.47;6.83;;;14.70;57.20;;;;;;5032074;28;20235;-94
2023/03/15 12:18:42;;;;;;;23.50;5.60;;;14.70;57.20;;;;;;5012257;28;20243;-96
2023/03/15 12:21:16;;;;;;;35.27;6.33;;;14.80;57.30;;;;;;5031736;28;20243;-93
2023/03/15 12:23:58;;;;;;;39.40;6.60;;;14.70;57.20;;;;;;5027930;28;20275;-90
2023/03/15 12:26:32;;;;;;;60.63;8.17;;;14.80;57.30;;;;;;5028224;28;20200;-94
2023/03/15 12:29:07;;;;;;;34.63;7.00;;;14.80;57.30;;;;;;5032975;28;20239;-92
2023/03/15 12:31:55;;;;;;;41.53;6.97;;;14.80;57.30;;;;;;5029745;28;20621;-94
2023/03/15 12:34:30;;;;;;;49.53;7.57;;;14.80;57.40;;;;;;5030238;28;20298;-95
2023/03/15 12:37:02;;;;;;;43.73;7.27;;;14.90;57.40;;;;;;5029451;28;20232;-93
2023/03/15 12:39:40;;;;;;;51.37;7.80;;;15.00;57.50;;;;;;5024517;28;20216;-93
2023/03/15 12:42:14;;;;;;;43.07;6.93;;;14.90;57.50;;;;;;5016564;28;20590;-94
2023/03/15 12:44:42;;;;;;;48.67;7.23;;;14.90;57.50;;;;;;5029531;28;20207;-95
2023/03/15 12:47:11;;;;;;;42.30;7.17;;;15.00;57.50;;;;;;5031062;28;20292;-96
2023/03/15 12:49:41;;;;;;;37.53;6.77;;;15.00;57.50;;;;;;5031699;28;20233;-95
2023/03/15 12:52:28;;;;;;;44.27;6.80;;;15.00;57.50;;;;;;5029589;28;20208;-95